Glen Cove, Washington
Current Conditions -  °F | °C
As of 10:56 AM on Thursday 30 Oct 2014 (Local Time) from KNUW Reporting Station
Moderate Rain Moderate Rain  
Wind Chill: 60°   Ceiling: 8000
Heat Index: 60°   Visibility: 7mi
Dew Point: 51°   Wind: 21mph
Humidity: 72%   Direction: 140°SE
Pressure: 29.83"   Gusts: 25mph
Location:  48.026°N, 122.859°W
Report Text: KNUW 301756Z 14018G22KT 7SM RA FEW050 BKN080 OVC090 16/11 A2983 RMK AO2 RAB49 SLP105 P0001 60001 T01560106 10161 20106 56007 $
Loading
Personal Weather Stations






























Interactive Weather Map
Tropical Storm Tracking
New forecast layout! Learn more

10-Day Weather Forecast

Advertisements
Track Severe Weather on mobile